Time;durP1;ratioP1;P1;durP2;ratioP2;P2;SDS_P1;SDS_P2;PMS_P1;PMS_P2;Temp;Humidity;BMP_temperature;BMP_pressure;BME280_temperature;BME280_humidity;BME280_pressure;Samples;Min_cycle;Max_cycle;Signal;HPM_P1;HPM_P2
2023/05/14 00:00:11;;;;;;;4.43;2.70;;;;;;;19.77;51.65;97124.66;10421245;28;20539;-50
2023/05/14 00:05:51;;;;;;;5.00;2.47;;;;;;;19.75;51.68;97112.22;10396948;28;20088;-50
2023/05/14 00:11:10;;;;;;;3.50;2.50;;;;;;;19.75;51.66;97111.44;10408303;28;20038;-49
2023/05/14 00:16:30;;;;;;;3.20;2.17;;;;;;;19.75;51.53;97100.63;10391457;28;20097;-48
2023/05/14 00:21:50;;;;;;;3.55;2.40;;;;;;;19.74;51.67;97096.34;10391127;28;20042;-50
2023/05/14 00:27:10;;;;;;;2.38;1.95;;;;;;;19.73;51.62;97083.94;10401186;28;20049;-50
2023/05/14 00:32:29;;;;;;;4.28;2.20;;;;;;;19.73;51.62;97090.13;10402050;28;20080;-49
2023/05/14 00:37:49;;;;;;;4.47;2.30;;;;;;;19.72;51.60;97079.66;10392898;28;20053;-50
2023/05/14 00:43:09;;;;;;;3.63;1.88;;;;;;;19.71;51.69;97075.31;10424302;28;20038;-50
2023/05/14 00:48:29;;;;;;;3.45;2.00;;;;;;;19.70;51.62;97073.75;10421367;28;20409;-49
2023/05/14 00:53:49;;;;;;;4.32;2.30;;;;;;;19.70;51.65;97071.03;10419340;28;20041;-48
2023/05/14 00:59:09;;;;;;;2.92;2.10;;;;;;;19.69;51.58;97072.13;10415942;28;20383;-49
2023/05/14 01:04:28;;;;;;;4.32;2.70;;;;;;;19.67;51.63;97069.75;10420793;28;20056;-51
2023/05/14 01:10:09;;;;;;;3.58;2.30;;;;;;;19.68;51.70;97086.75;10429371;28;20067;-50
2023/05/14 01:15:33;;;;;;;2.50;2.28;;;;;;;19.66;51.67;97089.78;10399484;28;20076;-51
2023/05/14 01:20:53;;;;;;;4.10;2.45;;;;;;;19.66;51.55;97086.28;10427867;28;20042;-49
2023/05/14 01:26:13;;;;;;;2.55;1.83;;;;;;;19.66;51.58;97080.88;10427426;28;20044;-49
2023/05/14 01:31:35;;;;;;;4.18;2.20;;;;;;;19.64;51.63;97073.09;10428282;28;20074;-49
2023/05/14 01:36:55;;;;;;;3.55;2.25;;;;;;;19.63;51.69;97068.78;10394871;28;20053;-51
2023/05/14 01:42:15;;;;;;;2.15;1.85;;;;;;;19.62;51.66;97059.13;10417138;28;20045;-50
2023/05/14 01:47:35;;;;;;;2.47;1.88;;;;;;;19.62;51.68;97061.00;10405252;28;20095;-51
2023/05/14 01:52:57;;;;;;;3.17;2.05;;;;;;;19.62;51.55;97058.28;10419831;28;20046;-49
2023/05/14 01:58:17;;;;;;;2.63;1.98;;;;;;;19.60;51.62;97053.22;10400616;28;20106;-47
2023/05/14 02:03:36;;;;;;;2.80;2.03;;;;;;;19.60;51.61;97057.81;10413098;28;20037;-48
2023/05/14 02:08:56;;;;;;;2.40;2.00;;;;;;;19.59;51.56;97051.63;10414351;28;20049;-50
2023/05/14 02:14:15;;;;;;;3.50;1.95;;;;;;;19.59;51.58;97054.34;10408286;28;20056;-48
2023/05/14 02:19:35;;;;;;;3.00;2.10;;;;;;;19.58;51.64;97054.63;10386910;28;20038;-50
2023/05/14 02:24:54;;;;;;;3.78;2.35;;;;;;;19.56;51.57;97047.66;10425247;28;20041;-49
2023/05/14 02:30:14;;;;;;;3.00;1.98;;;;;;;19.57;51.61;97048.44;10406470;28;20457;-49
2023/05/14 02:35:34;;;;;;;2.15;1.95;;;;;;;19.56;51.55;97046.84;10399394;28;20517;-48
2023/05/14 02:40:53;;;;;;;2.20;2.00;;;;;;;19.56;51.58;97036.03;10390023;28;20060;-49
2023/05/14 02:46:13;;;;;;;3.10;2.08;;;;;;;19.54;51.60;97033.69;10420994;28;20049;-50
2023/05/14 02:51:32;;;;;;;3.55;1.88;;;;;;;19.53;51.59;97034.78;10373344;28;20506;-47
2023/05/14 02:56:51;;;;;;;3.05;1.95;;;;;;;19.53;51.54;97028.59;10399358;28;20469;-50
2023/05/14 03:02:11;;;;;;;2.90;2.05;;;;;;;19.52;51.61;97021.56;10402356;28;20037;-49
2023/05/14 03:07:30;;;;;;;2.80;1.83;;;;;;;19.52;51.53;97026.97;10397161;28;20111;-48
2023/05/14 03:12:50;;;;;;;2.72;1.90;;;;;;;19.50;51.40;97021.91;10396189;28;20049;-49
2023/05/14 03:18:10;;;;;;;2.47;1.75;;;;;;;19.50;51.55;97016.50;10407893;28;20045;-48
2023/05/14 03:23:33;;;;;;;2.05;1.83;;;;;;;19.49;51.51;97031.13;10403226;28;20095;-48
2023/05/14 03:28:53;;;;;;;2.22;1.80;;;;;;;19.48;51.49;97029.53;10420261;28;20045;-49
2023/05/14 03:34:13;;;;;;;2.63;2.00;;;;;;;19.48;51.58;97029.53;10423525;28;20559;-48
2023/05/14 03:39:32;;;;;;;2.60;1.90;;;;;;;19.46;51.53;97015.53;10416718;28;20049;-49
2023/05/14 03:44:52;;;;;;;2.50;1.95;;;;;;;19.46;51.54;97023.63;10390979;28;20113;-50
2023/05/14 03:50:12;;;;;;;2.75;1.92;;;;;;;19.46;51.53;97023.63;10389866;28;20049;-47
2023/05/14 03:55:32;;;;;;;2.85;2.00;;;;;;;19.45;51.59;97018.56;10407315;28;20045;-49
2023/05/14 04:00:51;;;;;;;1.75;1.65;;;;;;;19.44;51.55;97023.16;10411420;28;20414;-49
2023/05/14 04:06:11;;;;;;;1.52;1.42;;;;;;;19.45;51.64;97024.75;10388690;28;20053;-50
2023/05/14 04:11:30;;;;;;;2.30;1.60;;;;;;;19.44;51.54;97020.47;10417705;28;20048;-50
2023/05/14 04:16:49;;;;;;;1.75;1.65;;;;;;;19.43;51.49;97010.78;10398167;28;20049;-49
2023/05/14 04:22:09;;;;;;;1.83;1.60;;;;;;;19.43;51.62;97013.47;10388373;28;20449;-50
2023/05/14 04:27:28;;;;;;;3.33;1.73;;;;;;;19.42;51.64;97008.38;10394179;28;20514;-50
2023/05/14 04:32:48;;;;;;;1.80;1.60;;;;;;;19.41;51.60;97010.31;10402428;28;20387;-49
2023/05/14 04:38:08;;;;;;;2.10;1.67;;;;;;;19.41;51.43;97014.91;10405655;28;20042;-48
2023/05/14 04:43:28;;;;;;;1.88;1.70;;;;;;;19.40;51.51;97005.22;10396596;28;20037;-49
2023/05/14 04:48:48;;;;;;;1.70;1.60;;;;;;;19.40;51.49;96995.19;10377232;28;1129142;-49
2023/05/14 04:54:07;;;;;;;3.20;1.90;;;;;;;19.39;51.56;96999.03;10379032;28;20049;-50
2023/05/14 04:59:26;;;;;;;1.70;1.42;;;;;;;19.39;51.47;96995.53;10406221;28;20038;-50
2023/05/14 05:04:46;;;;;;;1.70;1.60;;;;;;;19.39;51.54;96995.53;10400551;28;20044;-50
2023/05/14 05:10:06;;;;;;;1.80;1.70;;;;;;;19.39;51.64;96995.53;10388815;28;20041;-49
2023/05/14 05:15:25;;;;;;;2.63;1.90;;;;;;;19.38;51.60;96996.63;10388574;28;20045;-48
2023/05/14 05:20:45;;;;;;;2.00;1.70;;;;;;;19.38;51.69;97002.81;10400939;28;20049;-49
2023/05/14 05:26:04;;;;;;;1.88;1.70;;;;;;;19.37;51.64;96998.56;10401970;28;20049;-49
2023/05/14 05:31:24;;;;;;;2.28;1.88;;;;;;;19.37;51.58;96995.84;10407265;28;20050;-49
2023/05/14 05:36:43;;;;;;;2.22;1.80;;;;;;;19.37;51.60;97001.25;10404584;28;20037;-47
2023/05/14 05:42:04;;;;;;;1.65;1.55;;;;;;;19.36;51.50;96995.03;10404685;28;20415;-48
2023/05/14 05:47:24;;;;;;;1.70;1.60;;;;;;;19.36;51.65;96986.13;10393724;28;20498;-49
2023/05/14 05:52:43;;;;;;;2.97;1.75;;;;;;;19.38;51.57;96980.44;10398469;28;20830;-47
2023/05/14 05:58:03;;;;;;;1.65;1.40;;;;;;;19.38;51.63;96989.31;10390030;28;20049;-50
2023/05/14 06:03:22;;;;;;;1.85;1.35;;;;;;;19.39;51.72;96988.22;10393074;28;20045;-49
2023/05/14 06:08:42;;;;;;;1.60;1.45;;;;;;;19.39;51.67;96988.22;10393189;28;20072;-47
2023/05/14 06:14:01;;;;;;;1.52;1.42;;;;;;;19.40;51.67;96983.59;10392715;28;20064;-50
2023/05/14 06:19:21;;;;;;;1.42;1.33;;;;;;;19.42;51.69;96981.38;10392541;28;20060;-47
2023/05/14 06:24:41;;;;;;;1.42;1.33;;;;;;;19.42;51.67;96979.47;10389645;28;20045;-48
2023/05/14 06:30:00;;;;;;;1.50;1.33;;;;;;;19.44;51.71;96989.94;10388663;28;20042;-49
2023/05/14 06:35:20;;;;;;;1.50;1.40;;;;;;;19.45;51.60;96975.34;10389114;28;20037;-48
2023/05/14 06:40:39;;;;;;;1.85;1.45;;;;;;;19.46;51.66;96980.41;10410078;28;20084;-49
2023/05/14 06:45:59;;;;;;;1.30;1.13;;;;;;;19.49;51.62;96981.69;10405133;28;20041;-49
2023/05/14 06:51:18;;;;;;;2.15;1.67;;;;;;;19.50;51.77;96984.09;10394477;28;20057;-48
2023/05/14 06:56:38;;;;;;;1.70;1.23;;;;;;;19.50;52.44;96984.09;10396608;28;20046;-48
2023/05/14 07:01:58;;;;;;;1.92;1.50;;;;;;;19.52;52.74;96975.63;10371854;28;20045;-49
2023/05/14 07:07:20;;;;;;;1.63;1.52;;;;;;;19.54;52.77;96976.94;10409420;28;20045;-48
2023/05/14 07:12:39;;;;;;;1.75;1.30;;;;;;;19.55;52.82;96969.59;10395942;28;20504;-49
2023/05/14 07:17:59;;;;;;;1.92;1.40;;;;;;;19.58;52.64;96974.34;10424102;28;20068;-50
2023/05/14 07:23:19;;;;;;;1.45;1.23;;;;;;;19.60;52.72;96966.75;10404459;28;20073;-47
2023/05/14 07:28:38;;;;;;;1.75;1.60;;;;;;;19.63;52.53;96960.69;10387723;28;20053;-48
2023/05/14 07:33:58;;;;;;;1.42;1.25;;;;;;;19.63;52.56;96957.19;10383223;28;20108;-49
2023/05/14 07:39:17;;;;;;;1.45;1.33;;;;;;;19.66;52.60;96957.38;10385001;28;20038;-47
2023/05/14 07:44:37;;;;;;;1.35;1.23;;;;;;;19.69;52.42;96961.31;10393237;28;20483;-49
2023/05/14 07:49:56;;;;;;;1.77;1.40;;;;;;;19.69;52.29;96956.69;10396229;28;20053;-49
2023/05/14 07:55:16;;;;;;;1.48;1.38;;;;;;;19.71;52.36;96959.91;10398017;28;20502;-47
2023/05/14 08:00:36;;;;;;;1.13;1.02;;;;;;;19.74;52.30;96963.91;10418275;28;20441;-50
2023/05/14 08:05:55;;;;;;;1.35;1.25;;;;;;;19.75;52.29;96962.78;10404519;28;20041;-48
2023/05/14 08:11:14;;;;;;;1.63;1.52;;;;;;;19.77;52.13;96952.44;10402479;28;20120;-48
2023/05/14 08:16:34;;;;;;;2.53;1.60;;;;;;;19.79;52.00;96952.91;10380370;28;20379;-46
2023/05/14 08:21:54;;;;;;;1.83;1.40;;;;;;;19.81;52.12;96942.56;10425872;28;20073;-49
2023/05/14 08:27:15;;;;;;;1.50;1.30;;;;;;;19.85;52.16;96948.91;10392599;28;20049;-49
2023/05/14 08:32:37;;;;;;;1.30;1.20;;;;;;;19.88;52.02;96928.56;10393528;28;20104;-49
2023/05/14 08:37:56;;;;;;;1.40;1.30;;;;;;;19.90;51.99;96937.13;10405513;28;20041;-50
2023/05/14 08:43:19;;;;;;;1.65;1.40;;;;;;;19.91;51.95;96936.78;10406015;28;20057;-46
2023/05/14 08:48:41;;;;;;;1.00;0.90;;;;;;;19.94;51.79;96928.03;10390155;28;20066;-48
2023/05/14 08:54:01;;;;;;;2.45;1.42;;;;;;;19.95;51.71;96918.03;10402303;28;20042;-50
2023/05/14 08:59:21;;;;;;;1.35;1.25;;;;;;;19.99;51.64;96912.75;10392308;28;20046;-47
2023/05/14 09:04:41;;;;;;;1.35;1.25;;;;;;;20.01;51.78;96905.13;10411736;28;20125;-49
2023/05/14 09:10:01;;;;;;;1.65;1.25;;;;;;;20.02;51.42;96899.38;10403230;28;20033;-47
2023/05/14 09:15:22;;;;;;;1.52;1.20;;;;;;;20.04;51.42;96896.38;10389585;28;20058;-49
2023/05/14 09:20:42;;;;;;;1.17;1.10;;;;;;;20.05;51.24;96895.25;10415124;28;20548;-47
2023/05/14 09:26:04;;;;;;;3.65;2.35;;;;;;;20.04;48.44;96889.03;10395368;28;20037;-46
2023/05/14 09:31:24;;;;;;;1.60;1.50;;;;;;;20.03;49.34;96892.06;10394005;28;20050;-49
2023/05/14 09:36:44;;;;;;;1.70;1.60;;;;;;;20.05;50.42;96881.72;10409407;28;20042;-48
2023/05/14 09:42:04;;;;;;;2.03;1.58;;;;;;;20.09;50.24;96882.66;10404120;28;20103;-49
2023/05/14 09:47:24;;;;;;;2.15;1.83;;;;;;;20.10;50.04;96876.91;10393202;28;20100;-47
2023/05/14 09:52:43;;;;;;;1.85;1.73;;;;;;;20.13;50.10;96883.59;10398162;28;20045;-49
2023/05/14 09:58:03;;;;;;;1.70;1.60;;;;;;;20.16;50.21;96882.94;10417161;28;20041;-49
2023/05/14 10:03:25;;;;;;;1.98;1.88;;;;;;;20.18;50.25;96867.19;10385087;28;20112;-46
2023/05/14 10:08:47;;;;;;;4.32;1.90;;;;;;;20.18;50.24;96872.59;10389420;28;20037;-51
2023/05/14 10:14:11;;;;;;;1.73;1.58;;;;;;;20.19;50.41;96879.59;10409162;28;20403;-49
2023/05/14 10:19:33;;;;;;;1.85;1.50;;;;;;;20.20;50.34;96864.94;10411993;28;20046;-48
2023/05/14 10:24:54;;;;;;;1.83;1.58;;;;;;;20.21;50.44;96866.53;10390467;28;20059;-49
2023/05/14 10:30:14;;;;;;;2.33;1.60;;;;;;;20.23;50.40;96864.31;10405530;28;20502;-50
2023/05/14 10:35:57;;;;;;;1.73;1.63;;;;;;;20.24;50.47;96868.56;10405765;28;20080;-49
2023/05/14 10:41:16;;;;;;;1.70;1.60;;;;;;;20.25;50.39;96864.75;10386429;28;20041;-47
2023/05/14 10:46:36;;;;;;;1.70;1.60;;;;;;;20.26;50.40;96855.50;10388688;28;20049;-47
2023/05/14 10:51:56;;;;;;;1.58;1.48;;;;;;;20.27;50.43;96848.22;10382268;28;20516;-47
2023/05/14 10:57:17;;;;;;;1.67;1.58;;;;;;;20.28;50.43;96850.56;10375596;28;20057;-50
2023/05/14 11:02:39;;;;;;;1.40;1.30;;;;;;;20.29;50.47;96838.63;10388384;28;20068;-47
2023/05/14 11:08:01;;;;;;;1.70;1.60;;;;;;;20.30;50.48;96823.97;10388472;28;20046;-47
2023/05/14 11:13:20;;;;;;;5.07;2.03;;;;;;;20.31;50.48;96811.25;10385275;28;20046;-46
2023/05/14 11:18:40;;;;;;;70.75;16.88;;;;;;;20.33;50.58;96819.84;10417085;28;20048;-45
2023/05/14 11:24:00;;;;;;;489.83;107.03;;;;;;;20.32;51.04;96823.66;10411536;28;20418;-48
2023/05/14 11:29:19;;;;;;;255.18;52.88;;;;;;;20.32;50.65;96816.31;10398843;28;20045;-47
2023/05/14 11:34:39;;;;;;;243.10;52.80;;;;;;;20.33;50.38;96817.91;10402833;28;20414;-50
2023/05/14 11:39:59;;;;;;;209.40;47.05;;;;;;;20.33;49.97;96814.44;10422829;28;20044;-48
2023/05/14 11:45:28;;;;;;;193.63;45.80;;;;;;;20.33;49.84;96817.13;10405527;28;20092;-46
2023/05/14 11:50:49;;;;;;;180.55;42.80;;;;;;;20.34;49.80;96811.38;10382589;28;20100;-48
2023/05/14 11:56:10;;;;;;;141.25;38.22;;;;;;;20.35;49.83;96804.84;10405994;28;20042;-47
2023/05/14 12:01:35;;;;;;;165.20;37.55;;;;;;;20.35;49.90;96802.16;10410790;28;20107;-47
2023/05/14 12:06:57;;;;;;;125.43;32.50;;;;;;;20.35;49.61;96788.63;10402719;28;20041;-49
2023/05/14 12:12:19;;;;;;;109.13;29.63;;;;;;;20.35;49.54;96782.44;10410908;28;20041;-48
2023/05/14 12:17:39;;;;;;;98.15;26.65;;;;;;;20.35;49.40;96788.63;10405510;28;20048;-49
2023/05/14 12:22:59;;;;;;;103.93;25.58;;;;;;;20.36;49.24;96781.28;10395808;28;20038;-49
2023/05/14 12:28:18;;;;;;;84.53;22.92;;;;;;;20.36;49.12;96784.00;10393112;28;20065;-47
2023/05/14 12:33:38;;;;;;;74.25;21.55;;;;;;;20.35;48.97;96771.59;10393588;28;20046;-46
2023/05/14 12:39:00;;;;;;;80.43;21.73;;;;;;;20.34;48.68;96762.69;10429829;28;20048;-46
2023/05/14 12:44:21;;;;;;;70.32;20.38;;;;;;;20.34;48.74;96764.59;10392931;28;20048;-46
2023/05/14 12:49:40;;;;;;;67.82;18.77;;;;;;;20.36;48.52;96751.53;10384854;28;20502;-47
2023/05/14 12:55:00;;;;;;;61.80;18.48;;;;;;;20.35;48.44;96752.66;10412192;28;20045;-48
2023/05/14 13:00:20;;;;;;;58.97;16.30;;;;;;;20.35;48.49;96752.66;10389274;28;20046;-47
2023/05/14 13:05:40;;;;;;;55.88;16.65;;;;;;;20.35;48.25;96748.03;10391436;28;20045;-47
2023/05/14 13:10:59;;;;;;;52.40;14.77;;;;;;;20.35;48.33;96748.03;10395207;28;20120;-46
2023/05/14 13:16:20;;;;;;;59.13;16.17;;;;;;;20.35;48.20;96739.91;10399814;28;20042;-46
2023/05/14 13:21:39;;;;;;;48.67;15.40;;;;;;;20.35;48.19;96736.44;10416162;28;20041;-48
2023/05/14 13:26:58;;;;;;;46.65;14.38;;;;;;;20.35;48.18;96737.22;10402653;28;20490;-46
2023/05/14 13:32:18;;;;;;;48.85;14.38;;;;;;;20.37;48.08;96733.41;10420382;28;20076;-48
2023/05/14 13:37:38;;;;;;;39.22;12.32;;;;;;;20.35;48.00;96734.50;10418145;28;20049;-49
2023/05/14 13:42:57;;;;;;;39.95;12.82;;;;;;;20.35;48.08;96731.81;10406576;28;20041;-49
2023/05/14 13:48:16;;;;;;;37.20;11.45;;;;;;;20.34;47.98;96732.13;10397271;28;20457;-46
2023/05/14 13:53:36;;;;;;;37.10;11.35;;;;;;;20.33;47.96;96707.00;10389092;28;20045;-47
2023/05/14 13:58:55;;;;;;;35.70;10.88;;;;;;;20.32;47.99;96716.22;10401995;28;20046;-47
2023/05/14 14:04:15;;;;;;;29.65;10.88;;;;;;;20.33;47.95;96706.22;10401637;28;20041;-49
2023/05/14 14:09:35;;;;;;;26.80;9.82;;;;;;;20.31;48.18;96720.06;10400908;28;20046;-48
2023/05/14 14:14:55;;;;;;;25.15;9.32;;;;;;;20.30;48.62;96723.09;10394333;28;20041;-46
2023/05/14 14:20:15;;;;;;;21.05;7.88;;;;;;;20.29;48.55;96710.72;10415069;28;20046;-48
2023/05/14 14:25:35;;;;;;;20.85;8.18;;;;;;;20.29;48.58;96725.03;10389054;28;20038;-46
2023/05/14 14:30:54;;;;;;;21.45;8.20;;;;;;;20.28;48.58;96720.72;10389054;28;20050;-47
2023/05/14 14:36:13;;;;;;;23.40;7.93;;;;;;;20.27;48.73;96708.31;10400574;28;20041;-48
2023/05/14 14:41:33;;;;;;;21.23;7.00;;;;;;;20.27;48.90;96719.16;10413658;28;20037;-46
2023/05/14 14:46:52;;;;;;;19.63;7.10;;;;;;;20.25;48.92;96715.97;10396020;28;20053;-46
2023/05/14 14:52:11;;;;;;;14.82;6.25;;;;;;;20.25;48.93;96707.09;10376538;28;20081;-46
2023/05/14 14:57:30;;;;;;;14.70;5.97;;;;;;;20.22;48.95;96705.81;10396098;28;20038;-47
2023/05/14 15:02:50;;;;;;;14.57;5.70;;;;;;;20.23;49.01;96702.00;10399726;28;20041;-47
2023/05/14 15:08:09;;;;;;;13.00;5.30;;;;;;;20.22;49.14;96703.09;10396825;28;20033;-48
2023/05/14 15:13:29;;;;;;;11.25;5.00;;;;;;;20.21;49.08;96704.25;10405801;28;20100;-50
2023/05/14 15:18:48;;;;;;;11.85;4.97;;;;;;;20.20;49.21;96708.06;10420042;28;20044;-50
2023/05/14 15:24:14;;;;;;;10.95;5.10;;;;;;;20.20;49.21;96701.88;10382973;28;20053;-49
2023/05/14 15:29:34;;;;;;;8.38;3.90;;;;;;;20.17;47.63;96707.91;10411108;28;20041;-49
2023/05/14 15:34:54;;;;;;;3.30;2.30;;;;;;;19.65;45.30;96709.03;10392809;28;20482;-47
2023/05/14 15:40:13;;;;;;;3.60;2.25;;;;;;;19.66;46.39;96707.91;10407133;28;20042;-49
2023/05/14 15:45:33;;;;;;;2.55;2.35;;;;;;;19.57;46.68;96718.78;10395276;28;20037;-49
2023/05/14 15:50:52;;;;;;;3.63;2.80;;;;;;;19.43;47.00;96710.91;10382568;28;20112;-50
2023/05/14 15:56:12;;;;;;;3.78;2.85;;;;;;;19.33;47.33;96709.34;10397179;28;20045;-49
2023/05/14 16:01:32;;;;;;;4.22;3.30;;;;;;;19.24;47.77;96713.19;10402886;28;20041;-50
2023/05/14 16:06:52;;;;;;;3.63;3.03;;;;;;;19.16;48.09;96710.19;10395587;28;20042;-49
2023/05/14 16:12:11;;;;;;;4.05;3.33;;;;;;;19.08;48.36;96710.25;10420614;28;20107;-48
2023/05/14 16:17:31;;;;;;;3.75;3.30;;;;;;;19.01;49.10;96708.03;10390970;28;20108;-47
2023/05/14 16:22:51;;;;;;;3.45;3.15;;;;;;;18.93;49.35;96709.66;10396403;28;20046;-49
2023/05/14 16:28:10;;;;;;;3.47;3.00;;;;;;;19.10;48.70;96705.31;10390878;28;20046;-55
2023/05/14 16:33:29;;;;;;;3.05;2.75;;;;;;;19.36;48.47;96694.41;10400590;28;20441;-56
2023/05/14 16:38:48;;;;;;;3.55;2.88;;;;;;;19.51;48.32;96688.44;10405336;28;20559;-55
2023/05/14 16:44:08;;;;;;;4.38;2.65;;;;;;;19.64;48.92;96693.94;10376762;28;20111;-55
2023/05/14 16:49:27;;;;;;;3.53;2.60;;;;;;;19.71;49.18;96686.09;10393061;28;20498;-55
2023/05/14 16:54:46;;;;;;;3.22;2.75;;;;;;;19.76;49.56;96688.66;10401042;28;20057;-56
2023/05/14 17:00:08;;;;;;;4.75;2.03;;;;;;;19.83;50.38;96688.13;10408715;28;20506;-56
2023/05/14 17:05:27;;;;;;;6.93;2.85;;;;;;;19.87;50.29;96687.13;10389869;28;20414;-55
2023/05/14 17:10:47;;;;;;;6.72;2.03;;;;;;;19.91;50.53;96681.88;10416819;28;20045;-56
2023/05/14 17:16:06;;;;;;;6.00;2.55;;;;;;;19.95;50.46;96680.09;10389076;28;20116;-54
2023/05/14 17:21:28;;;;;;;2.40;2.20;;;;;;;19.95;50.73;96675.50;10386243;28;20054;-56
2023/05/14 17:26:48;;;;;;;3.50;2.58;;;;;;;19.99;51.05;96675.59;10399128;28;20045;-54
2023/05/14 17:32:08;;;;;;;6.40;2.45;;;;;;;20.01;51.06;96672.56;10395776;28;20491;-57
2023/05/14 17:37:28;;;;;;;3.05;2.50;;;;;;;20.05;51.14;96673.50;10398548;28;20378;-58
2023/05/14 17:42:48;;;;;;;3.30;2.50;;;;;;;20.06;51.17;96665.06;10376572;28;20498;-55
2023/05/14 17:48:07;;;;;;;7.65;2.03;;;;;;;20.08;50.78;96667.44;10374370;28;20072;-56
2023/05/14 17:53:27;;;;;;;3.58;2.13;;;;;;;20.11;51.06;96666.75;10375076;28;20045;-58
2023/05/14 17:58:48;;;;;;;2.47;2.20;;;;;;;20.13;51.17;96659.09;10400096;28;20046;-55
2023/05/14 18:04:08;;;;;;;6.25;2.38;;;;;;;20.15;51.14;96656.88;10399745;28;20053;-54
2023/05/14 18:09:27;;;;;;;5.43;2.30;;;;;;;20.17;51.40;96662.75;10386462;28;20042;-54
2023/05/14 18:14:47;;;;;;;4.18;2.40;;;;;;;20.20;51.60;96653.19;10392477;28;20049;-55
2023/05/14 18:20:07;;;;;;;3.28;2.38;;;;;;;20.21;51.63;96658.25;10405518;28;20042;-54
2023/05/14 18:25:27;;;;;;;3.83;2.55;;;;;;;20.24;51.54;96649.47;10373111;28;20127;-54
2023/05/14 18:30:47;;;;;;;10.25;6.00;;;;;;;20.26;52.14;96647.22;10405033;28;20524;-55
2023/05/14 18:36:07;;;;;;;13.77;5.40;;;;;;;20.29;52.87;96646.56;10389599;28;20053;-55
2023/05/14 18:41:27;;;;;;;17.58;7.10;;;;;;;20.31;53.52;96652.44;10405006;28;20045;-54
2023/05/14 18:46:47;;;;;;;12.15;7.30;;;;;;;20.32;54.24;96645.09;10417735;28;20049;-55
2023/05/14 18:52:07;;;;;;;12.68;6.68;;;;;;;20.35;54.47;96645.22;10384070;28;20069;-55
2023/05/14 18:57:28;;;;;;;13.45;6.25;;;;;;;20.37;54.23;96636.00;10396951;28;20063;-55
2023/05/14 19:02:47;;;;;;;12.63;5.05;;;;;;;20.37;54.03;96642.19;10387870;28;20042;-55
2023/05/14 19:08:06;;;;;;;8.85;4.00;;;;;;;20.36;53.80;96637.91;10391382;28;20498;-56
2023/05/14 19:13:27;;;;;;;10.68;4.70;;;;;;;20.37;53.57;96636.78;10389927;28;20053;-56
2023/05/14 19:18:47;;;;;;;11.10;4.72;;;;;;;20.37;53.34;96630.59;10420477;28;20049;-57
2023/05/14 19:24:06;;;;;;;7.55;4.43;;;;;;;20.36;53.59;96632.50;10390756;28;20042;-55
2023/05/14 19:29:25;;;;;;;8.23;3.78;;;;;;;20.37;53.60;96625.97;10387684;28;20042;-55
2023/05/14 19:34:45;;;;;;;8.15;3.88;;;;;;;20.38;53.87;96629.47;10395908;28;20046;-55
2023/05/14 19:40:05;;;;;;;12.65;4.47;;;;;;;20.38;53.76;96616.72;10403693;28;20046;-55
2023/05/14 19:45:25;;;;;;;6.30;3.25;;;;;;;20.40;53.70;96609.06;10395748;28;20042;-56
2023/05/14 19:50:46;;;;;;;5.85;3.20;;;;;;;20.40;53.43;96603.63;10396415;28;20049;-56
2023/05/14 19:56:05;;;;;;;7.38;4.03;;;;;;;20.41;53.49;96593.63;10403347;28;20057;-56
2023/05/14 20:01:25;;;;;;;8.48;3.40;;;;;;;20.41;53.25;96594.41;10397529;28;20042;-56
2023/05/14 20:06:45;;;;;;;7.07;3.50;;;;;;;20.42;53.46;96595.19;10419636;28;20485;-56
2023/05/14 20:12:06;;;;;;;7.07;3.80;;;;;;;20.40;53.15;96592.81;10419401;28;20116;-56
2023/05/14 20:17:25;;;;;;;6.28;3.50;;;;;;;20.40;53.23;96581.22;10393663;28;20430;-56
2023/05/14 20:22:45;;;;;;;5.50;3.50;;;;;;;20.40;53.04;96581.22;10407753;28;20041;-55
2023/05/14 20:28:05;;;;;;;7.38;3.22;;;;;;;20.40;53.07;96575.81;10405232;28;20041;-55
2023/05/14 20:33:25;;;;;;;4.60;3.05;;;;;;;20.40;52.95;96570.38;10431403;28;20056;-56
2023/05/14 20:38:46;;;;;;;6.25;3.10;;;;;;;20.38;52.93;96557.19;10404300;28;20099;-55
2023/05/14 20:44:06;;;;;;;6.78;3.25;;;;;;;20.39;52.83;96555.28;10417039;28;20042;-56
2023/05/14 20:49:26;;;;;;;6.50;3.03;;;;;;;20.38;53.01;96549.06;10397151;28;20136;-56
2023/05/14 20:54:47;;;;;;;3.75;2.60;;;;;;;20.40;53.22;96546.03;10389613;28;20410;-56
2023/05/14 21:00:08;;;;;;;5.05;2.67;;;;;;;20.40;53.41;96532.50;10395400;28;20038;-56
2023/05/14 21:05:28;;;;;;;3.78;2.78;;;;;;;20.40;53.61;96529.81;10408480;28;20045;-56
2023/05/14 21:10:47;;;;;;;5.32;2.80;;;;;;;20.40;53.49;96527.09;10389112;28;20049;-56
2023/05/14 21:16:06;;;;;;;4.72;2.65;;;;;;;20.39;53.38;96514.72;10406001;28;20045;-56
2023/05/14 21:21:26;;;;;;;4.75;2.90;;;;;;;20.38;53.41;96505.00;10402467;28;20050;-56
2023/05/14 21:26:46;;;;;;;5.70;2.80;;;;;;;20.38;53.27;96494.19;10399570;28;20042;-56
2023/05/14 21:32:05;;;;;;;5.07;2.38;;;;;;;20.35;53.24;96501.06;10387381;28;20406;-56
2023/05/14 21:37:25;;;;;;;4.05;2.42;;;;;;;20.35;53.24;96493.72;10396731;28;20046;-56
2023/05/14 21:42:44;;;;;;;3.78;2.55;;;;;;;20.34;53.33;96489.44;10393904;28;20448;-56
2023/05/14 21:48:05;;;;;;;4.13;2.50;;;;;;;20.33;53.26;96482.47;10385949;28;20057;-56
2023/05/14 21:53:25;;;;;;;3.80;2.45;;;;;;;20.33;53.22;96485.16;10383373;28;20112;-56
2023/05/14 21:58:44;;;;;;;4.82;2.38;;;;;;;20.32;53.07;96478.16;10414897;28;20049;-56
2023/05/14 22:04:04;;;;;;;4.40;2.40;;;;;;;20.34;52.97;96475.13;10406157;28;20041;-56
2023/05/14 22:09:23;;;;;;;4.18;2.50;;;;;;;20.31;52.97;96454.16;10406396;28;20040;-56
2023/05/14 22:14:42;;;;;;;3.10;2.25;;;;;;;20.30;52.95;96456.06;10398138;28;20049;-56
2023/05/14 22:20:05;;;;;;;3.00;2.20;;;;;;;20.30;52.78;96453.34;10405904;28;20034;-56
2023/05/14 22:25:24;;;;;;;4.70;2.47;;;;;;;20.30;52.81;96445.25;10389469;28;20045;-56
2023/05/14 22:30:44;;;;;;;2.58;2.03;;;;;;;20.28;52.65;96439.38;10405721;28;20497;-56
2023/05/14 22:36:05;;;;;;;3.88;2.15;;;;;;;20.29;52.69;96440.19;10392491;28;20034;-56
2023/05/14 22:41:25;;;;;;;3.50;2.20;;;;;;;20.28;52.68;96425.84;10396848;28;20049;-56
2023/05/14 22:46:45;;;;;;;2.55;2.08;;;;;;;20.27;52.66;96427.00;10372905;28;20060;-56
2023/05/14 22:52:04;;;;;;;4.50;2.30;;;;;;;20.27;52.59;96420.81;10386336;28;20066;-56
2023/05/14 22:57:24;;;;;;;2.78;2.00;;;;;;;20.25;52.55;96413.03;10400166;28;20517;-56
2023/05/14 23:02:44;;;;;;;2.65;2.38;;;;;;;20.25;52.58;96407.63;10399773;28;20050;-56
2023/05/14 23:08:04;;;;;;;2.75;1.90;;;;;;;20.25;52.57;96402.22;10399433;28;20038;-56
2023/05/14 23:13:24;;;;;;;3.25;1.88;;;;;;;20.23;52.48;96385.53;10390812;28;20053;-56
2023/05/14 23:18:44;;;;;;;3.35;2.00;;;;;;;20.24;52.45;96384.38;10418228;28;20061;-56
2023/05/14 23:24:04;;;;;;;2.97;1.98;;;;;;;20.22;52.31;96381.22;10407702;28;20068;-56
2023/05/14 23:29:23;;;;;;;2.22;1.80;;;;;;;20.22;52.28;96375.81;10404185;28;20045;-56
2023/05/14 23:34:43;;;;;;;2.30;1.70;;;;;;;20.22;52.38;96369.63;10395739;28;20060;-56
2023/05/14 23:40:03;;;;;;;2.22;1.80;;;;;;;20.22;52.35;96358.81;10405835;28;20045;-56
2023/05/14 23:45:22;;;;;;;2.25;1.70;;;;;;;20.20;52.38;96351.03;10395332;28;20042;-56
2023/05/14 23:50:42;;;;;;;2.88;1.92;;;;;;;20.18;52.33;96342.47;10386330;28;20054;-56
2023/05/14 23:56:02;;;;;;;2.10;1.83;;;;;;;20.19;52.16;96333.25;10408643;28;20045;-56
